createdAt,value
2023-03-20T00:10:11.128Z,18.30
2023-03-20T00:22:08.819Z,15.90
2023-03-20T00:34:09.253Z,16.50
2023-03-20T00:46:09.725Z,16.20
2023-03-20T00:58:10.163Z,16.60
2023-03-20T01:10:12.811Z,17.00
2023-03-20T01:22:11.070Z,16.20
2023-03-20T01:34:14.216Z,16.60
2023-03-20T01:46:12.021Z,16.40
2023-03-20T01:58:12.420Z,17.40
2023-03-20T02:10:12.857Z,17.30
2023-03-20T02:22:13.315Z,17.30
2023-03-20T02:34:13.769Z,16.70
2023-03-20T02:46:14.349Z,16.50
2023-03-20T02:58:16.875Z,16.80
2023-03-20T03:10:15.323Z,16.90
2023-03-20T03:22:15.579Z,17.90
2023-03-20T03:34:16.027Z,16.60
2023-03-20T03:46:16.497Z,17.00
2023-03-20T03:58:16.950Z,17.90
2023-03-20T04:10:17.394Z,17.40
2023-03-20T04:22:18.035Z,17.50
2023-03-20T04:34:18.363Z,17.90
2023-03-20T04:46:18.811Z,17.50
2023-03-20T04:58:19.211Z,17.30
2023-03-20T05:10:19.663Z,19.50
2023-03-20T05:22:20.095Z,18.40
2023-03-20T05:34:20.590Z,17.60
2023-03-20T05:46:21.021Z,19.10
2023-03-20T05:58:21.457Z,20.10
2023-03-20T06:10:24.615Z,19.40
2023-03-20T06:22:25.075Z,20.00
2023-03-20T06:34:22.812Z,27.30
2023-03-20T06:46:23.291Z,21.90
2023-03-20T06:58:23.705Z,21.10
2023-03-20T07:10:24.172Z,19.40
2023-03-20T07:22:24.609Z,18.50
2023-03-20T07:34:25.073Z,19.60
2023-03-20T07:46:25.738Z,18.00
2023-03-20T07:58:26.031Z,18.10
2023-03-20T08:10:26.511Z,17.70
2023-03-20T08:22:26.886Z,16.60
2023-03-20T08:34:27.361Z,16.20
2023-03-20T08:46:27.899Z,16.00
2023-03-20T08:58:28.229Z,14.50
2023-03-20T09:10:28.703Z,11.10
2023-03-20T09:22:29.163Z,10.00
2023-03-20T09:34:29.657Z,8.60
2023-03-20T09:46:30.096Z,6.90
2023-03-20T09:58:30.503Z,4.30
2023-03-20T10:10:30.936Z,3.80
2023-03-20T10:22:31.451Z,3.10
2023-03-20T10:34:31.841Z,3.70
2023-03-20T10:46:32.384Z,4.60
2023-03-20T10:58:32.788Z,4.20
2023-03-20T11:10:33.549Z,3.90
2023-03-20T11:22:33.689Z,2.70
2023-03-20T11:34:34.265Z,1.90
2023-03-20T11:46:34.560Z,2.00
2023-03-20T11:58:35.059Z,2.00
2023-03-20T12:10:35.842Z,1.70
2023-03-20T12:22:35.996Z,1.40
2023-03-20T12:34:36.427Z,1.60
2023-03-20T12:46:36.921Z,1.50
2023-03-20T12:58:37.329Z,1.40
2023-03-20T13:10:38.186Z,1.50
2023-03-20T13:22:38.279Z,1.50
2023-03-20T13:34:38.750Z,1.50
2023-03-20T13:46:39.234Z,2.00
2023-03-20T13:58:39.653Z,1.50
2023-03-20T14:10:40.380Z,1.50
2023-03-20T14:22:40.501Z,1.50
2023-03-20T14:34:40.969Z,1.40
2023-03-20T14:46:41.456Z,1.60
2023-03-20T14:58:41.893Z,1.70
2023-03-20T15:10:42.369Z,1.50
2023-03-20T15:22:42.796Z,1.50
2023-03-20T15:34:43.258Z,1.50
2023-03-20T15:46:43.714Z,1.70
2023-03-20T15:58:44.188Z,2.30
2023-03-20T16:10:44.608Z,3.70
2023-03-20T16:22:45.086Z,4.60
2023-03-20T16:34:45.512Z,9.60
2023-03-20T16:46:46.010Z,5.90
2023-03-20T16:58:46.433Z,6.30
2023-03-20T17:10:47.048Z,7.80
2023-03-20T17:22:47.361Z,7.40
2023-03-20T17:34:47.849Z,8.60
2023-03-20T17:46:57.959Z,9.70
2023-03-20T17:58:48.721Z,12.70
2023-03-20T18:10:49.163Z,24.00
2023-03-20T18:22:49.655Z,15.00
2023-03-20T18:34:50.048Z,17.00
2023-03-20T18:46:50.766Z,14.80
2023-03-20T18:58:50.973Z,29.80
2023-03-20T19:10:51.436Z,12.50
2023-03-20T19:22:51.869Z,15.50
2023-03-20T19:35:38.908Z,14.10
2023-03-20T19:46:52.795Z,15.60
2023-03-20T19:58:53.289Z,15.30
2023-03-20T20:10:56.906Z,11.30
2023-03-20T20:22:54.333Z,12.50
2023-03-20T20:46:55.055Z,13.40
2023-03-20T20:58:59.709Z,11.80
2023-03-20T21:10:55.958Z,13.80
2023-03-20T21:22:56.403Z,15.10
2023-03-20T21:34:56.899Z,14.80
2023-03-20T21:47:50.809Z,11.00
2023-03-20T22:11:45.011Z,10.90
2023-03-20T22:46:59.547Z,9.50
2023-03-20T22:59:00.035Z,9.10
2023-03-20T23:11:02.762Z,12.10
2023-03-20T23:23:00.972Z,9.40
2023-03-20T23:35:03.660Z,9.60
2023-03-20T23:47:08.356Z,9.50
2023-03-20T23:59:11.452Z,10.60
